Terminal Aerodrome Forecast
Issued by NWS Brownsville, TX

Home | Current Version | Previous Version | Text Only | Print | Product List | Glossary On
Versions: 1 2 3 4 5 6 7 8 9 10 11 12 13 14 15 16 17 18 19 20 21 22 23 24 25 26 27 28
000
FTUS44 KBRO 282227 AAB
TAFBRO
TAF AMD
KBRO 282227Z 2822/2918 03013G16KT P6SM VCSH FEW019
      TEMPO 2822/2823 4SM SHRA BKN025
     FM290100 35003KT P6SM FEW025 BKN080
     FM291400 35005KT P6SM BKN050
      TEMPO 2915/2918 SCT050 SCT080=

USA.gov is the U.S. government's official web portal to all federal, state and local government web resources and services.